sensor_id;sensor_type;location;lat;lon;timestamp;P1;durP1;ratioP1;P2;durP2;ratioP2
62848;SDS011;48941;49.516;8.286;2023-03-04T00:02:15;61.28;;;22.48;;
62848;SDS011;48941;49.516;8.286;2023-03-04T00:04:47;61.17;;;23.23;;
62848;SDS011;48941;49.516;8.286;2023-03-04T00:07:15;67.07;;;23.52;;
62848;SDS011;48941;49.516;8.286;2023-03-04T00:09:44;57.63;;;22.55;;
62848;SDS011;48941;49.516;8.286;2023-03-04T00:12:12;63.28;;;24.23;;
62848;SDS011;48941;49.516;8.286;2023-03-04T00:14:40;64.68;;;23.92;;
62848;SDS011;48941;49.516;8.286;2023-03-04T00:17:08;67.70;;;24.35;;
62848;SDS011;48941;49.516;8.286;2023-03-04T00:19:36;63.75;;;22.55;;
62848;SDS011;48941;49.516;8.286;2023-03-04T00:22:06;67.47;;;24.83;;
62848;SDS011;48941;49.516;8.286;2023-03-04T00:24:34;65.10;;;22.92;;
62848;SDS011;48941;49.516;8.286;2023-03-04T00:27:02;63.10;;;24.00;;
62848;SDS011;48941;49.516;8.286;2023-03-04T00:29:30;65.18;;;24.38;;
62848;SDS011;48941;49.516;8.286;2023-03-04T00:31:58;59.58;;;23.88;;
62848;SDS011;48941;49.516;8.286;2023-03-04T00:34:26;65.82;;;23.48;;
62848;SDS011;48941;49.516;8.286;2023-03-04T00:36:56;64.55;;;23.38;;
62848;SDS011;48941;49.516;8.286;2023-03-04T00:39:28;65.63;;;23.52;;
62848;SDS011;48941;49.516;8.286;2023-03-04T00:41:56;66.78;;;25.50;;
62848;SDS011;48941;49.516;8.286;2023-03-04T00:44:24;67.35;;;25.50;;
62848;SDS011;48941;49.516;8.286;2023-03-04T00:46:51;59.88;;;22.55;;
62848;SDS011;48941;49.516;8.286;2023-03-04T00:49:19;66.97;;;23.88;;
62848;SDS011;48941;49.516;8.286;2023-03-04T00:51:47;63.42;;;24.00;;
62848;SDS011;48941;49.516;8.286;2023-03-04T00:54:15;62.47;;;23.00;;
62848;SDS011;48941;49.516;8.286;2023-03-04T00:56:44;58.92;;;23.15;;
62848;SDS011;48941;49.516;8.286;2023-03-04T00:59:12;66.40;;;21.98;;
62848;SDS011;48941;49.516;8.286;2023-03-04T01:01:40;64.18;;;23.50;;
62848;SDS011;48941;49.516;8.286;2023-03-04T01:04:08;61.58;;;23.95;;
62848;SDS011;48941;49.516;8.286;2023-03-04T01:06:35;65.03;;;23.23;;
62848;SDS011;48941;49.516;8.286;2023-03-04T01:09:03;65.07;;;23.40;;
62848;SDS011;48941;49.516;8.286;2023-03-04T01:11:31;71.82;;;23.52;;
62848;SDS011;48941;49.516;8.286;2023-03-04T01:14:00;63.92;;;22.08;;
62848;SDS011;48941;49.516;8.286;2023-03-04T01:16:28;65.75;;;22.23;;
62848;SDS011;48941;49.516;8.286;2023-03-04T01:18:56;69.32;;;24.48;;
62848;SDS011;48941;49.516;8.286;2023-03-04T01:21:24;68.07;;;23.50;;
62848;SDS011;48941;49.516;8.286;2023-03-04T01:23:52;73.18;;;24.48;;
62848;SDS011;48941;49.516;8.286;2023-03-04T01:26:20;68.53;;;24.85;;
62848;SDS011;48941;49.516;8.286;2023-03-04T01:28:48;65.22;;;22.48;;
62848;SDS011;48941;49.516;8.286;2023-03-04T01:31:17;70.15;;;23.60;;
62848;SDS011;48941;49.516;8.286;2023-03-04T01:33:45;66.85;;;23.80;;
62848;SDS011;48941;49.516;8.286;2023-03-04T01:36:13;65.93;;;23.10;;
62848;SDS011;48941;49.516;8.286;2023-03-04T01:38:41;65.45;;;23.20;;
62848;SDS011;48941;49.516;8.286;2023-03-04T01:41:09;70.80;;;23.75;;
62848;SDS011;48941;49.516;8.286;2023-03-04T01:43:38;68.57;;;23.17;;
62848;SDS011;48941;49.516;8.286;2023-03-04T01:46:08;67.88;;;22.35;;
62848;SDS011;48941;49.516;8.286;2023-03-04T01:48:38;63.67;;;22.95;;
62848;SDS011;48941;49.516;8.286;2023-03-04T01:51:10;71.70;;;23.08;;
62848;SDS011;48941;49.516;8.286;2023-03-04T01:53:40;69.15;;;22.15;;
62848;SDS011;48941;49.516;8.286;2023-03-04T01:56:14;62.30;;;22.95;;
62848;SDS011;48941;49.516;8.286;2023-03-04T02:01:35;72.85;;;23.10;;
62848;SDS011;48941;49.516;8.286;2023-03-04T02:04:05;65.32;;;23.35;;
62848;SDS011;48941;49.516;8.286;2023-03-04T02:06:34;64.10;;;22.10;;
62848;SDS011;48941;49.516;8.286;2023-03-04T02:09:03;67.68;;;24.08;;
62848;SDS011;48941;49.516;8.286;2023-03-04T02:11:31;71.85;;;23.20;;
62848;SDS011;48941;49.516;8.286;2023-03-04T02:14:00;62.45;;;23.40;;
62848;SDS011;48941;49.516;8.286;2023-03-04T02:16:28;68.90;;;23.85;;
62848;SDS011;48941;49.516;8.286;2023-03-04T02:18:56;63.45;;;22.98;;
62848;SDS011;48941;49.516;8.286;2023-03-04T02:21:26;65.15;;;22.65;;
62848;SDS011;48941;49.516;8.286;2023-03-04T02:23:58;63.75;;;22.25;;
62848;SDS011;48941;49.516;8.286;2023-03-04T02:26:34;67.32;;;23.42;;
62848;SDS011;48941;49.516;8.286;2023-03-04T02:29:02;67.63;;;22.50;;
62848;SDS011;48941;49.516;8.286;2023-03-04T02:31:31;64.93;;;22.63;;
62848;SDS011;48941;49.516;8.286;2023-03-04T02:34:01;69.15;;;23.52;;
62848;SDS011;48941;49.516;8.286;2023-03-04T02:36:31;64.40;;;21.95;;
62848;SDS011;48941;49.516;8.286;2023-03-04T02:39:00;60.45;;;21.63;;
62848;SDS011;48941;49.516;8.286;2023-03-04T02:41:31;67.55;;;22.00;;
62848;SDS011;48941;49.516;8.286;2023-03-04T02:44:00;64.80;;;22.45;;
62848;SDS011;48941;49.516;8.286;2023-03-04T02:46:28;64.10;;;22.85;;
62848;SDS011;48941;49.516;8.286;2023-03-04T02:48:56;64.60;;;21.35;;
62848;SDS011;48941;49.516;8.286;2023-03-04T02:51:24;66.45;;;22.70;;
62848;SDS011;48941;49.516;8.286;2023-03-04T02:53:52;57.70;;;20.88;;
62848;SDS011;48941;49.516;8.286;2023-03-04T02:56:20;67.35;;;22.17;;
62848;SDS011;48941;49.516;8.286;2023-03-04T02:58:47;69.45;;;22.60;;
62848;SDS011;48941;49.516;8.286;2023-03-04T03:01:16;68.45;;;21.67;;
62848;SDS011;48941;49.516;8.286;2023-03-04T03:03:44;64.63;;;22.42;;
62848;SDS011;48941;49.516;8.286;2023-03-04T03:06:12;67.20;;;23.48;;
62848;SDS011;48941;49.516;8.286;2023-03-04T03:08:40;65.30;;;22.10;;
62848;SDS011;48941;49.516;8.286;2023-03-04T03:11:08;67.40;;;22.40;;
62848;SDS011;48941;49.516;8.286;2023-03-04T03:13:36;65.85;;;21.35;;
62848;SDS011;48941;49.516;8.286;2023-03-04T03:16:04;63.25;;;21.85;;
62848;SDS011;48941;49.516;8.286;2023-03-04T03:18:33;63.72;;;22.38;;
62848;SDS011;48941;49.516;8.286;2023-03-04T03:21:01;69.55;;;21.90;;
62848;SDS011;48941;49.516;8.286;2023-03-04T03:23:29;59.90;;;22.55;;
62848;SDS011;48941;49.516;8.286;2023-03-04T03:25:56;70.35;;;23.35;;
62848;SDS011;48941;49.516;8.286;2023-03-04T03:28:24;56.80;;;21.48;;
62848;SDS011;48941;49.516;8.286;2023-03-04T03:30:52;72.85;;;23.65;;
62848;SDS011;48941;49.516;8.286;2023-03-04T03:33:20;55.38;;;20.23;;
62848;SDS011;48941;49.516;8.286;2023-03-04T03:35:49;71.05;;;24.17;;
62848;SDS011;48941;49.516;8.286;2023-03-04T03:38:17;63.80;;;21.17;;
62848;SDS011;48941;49.516;8.286;2023-03-04T03:40:45;63.20;;;22.23;;
62848;SDS011;48941;49.516;8.286;2023-03-04T03:43:15;62.72;;;22.00;;
62848;SDS011;48941;49.516;8.286;2023-03-04T03:45:42;63.58;;;22.90;;
62848;SDS011;48941;49.516;8.286;2023-03-04T03:48:10;63.40;;;22.25;;
62848;SDS011;48941;49.516;8.286;2023-03-04T03:50:38;61.40;;;21.83;;
62848;SDS011;48941;49.516;8.286;2023-03-04T03:53:07;74.60;;;23.05;;
62848;SDS011;48941;49.516;8.286;2023-03-04T03:55:35;72.07;;;25.50;;
62848;SDS011;48941;49.516;8.286;2023-03-04T03:58:04;65.90;;;22.42;;
62848;SDS011;48941;49.516;8.286;2023-03-04T04:00:32;65.30;;;22.45;;
62848;SDS011;48941;49.516;8.286;2023-03-04T04:02:59;64.15;;;22.35;;
62848;SDS011;48941;49.516;8.286;2023-03-04T04:05:28;60.35;;;21.60;;
62848;SDS011;48941;49.516;8.286;2023-03-04T04:07:55;65.15;;;22.25;;
62848;SDS011;48941;49.516;8.286;2023-03-04T04:10:25;60.30;;;20.83;;
62848;SDS011;48941;49.516;8.286;2023-03-04T04:12:52;62.83;;;22.02;;
62848;SDS011;48941;49.516;8.286;2023-03-04T04:15:20;63.03;;;22.63;;
62848;SDS011;48941;49.516;8.286;2023-03-04T04:17:48;55.33;;;20.73;;
62848;SDS011;48941;49.516;8.286;2023-03-04T04:20:16;55.80;;;21.38;;
62848;SDS011;48941;49.516;8.286;2023-03-04T04:22:43;57.58;;;20.35;;
62848;SDS011;48941;49.516;8.286;2023-03-04T04:25:11;64.00;;;22.70;;
62848;SDS011;48941;49.516;8.286;2023-03-04T04:27:40;56.70;;;20.40;;
62848;SDS011;48941;49.516;8.286;2023-03-04T04:30:09;60.60;;;22.02;;
62848;SDS011;48941;49.516;8.286;2023-03-04T04:32:37;56.60;;;20.60;;
62848;SDS011;48941;49.516;8.286;2023-03-04T04:35:05;57.58;;;19.98;;
62848;SDS011;48941;49.516;8.286;2023-03-04T04:37:34;65.00;;;21.48;;
62848;SDS011;48941;49.516;8.286;2023-03-04T04:40:02;57.50;;;20.88;;
62848;SDS011;48941;49.516;8.286;2023-03-04T04:42:30;60.58;;;20.92;;
62848;SDS011;48941;49.516;8.286;2023-03-04T04:44:59;59.60;;;20.23;;
62848;SDS011;48941;49.516;8.286;2023-03-04T04:47:27;57.50;;;22.17;;
62848;SDS011;48941;49.516;8.286;2023-03-04T04:49:55;62.60;;;21.67;;
62848;SDS011;48941;49.516;8.286;2023-03-04T04:52:23;58.33;;;21.77;;
62848;SDS011;48941;49.516;8.286;2023-03-04T04:54:51;57.17;;;20.15;;
62848;SDS011;48941;49.516;8.286;2023-03-04T04:57:18;56.72;;;20.30;;
62848;SDS011;48941;49.516;8.286;2023-03-04T04:59:46;56.10;;;21.85;;
62848;SDS011;48941;49.516;8.286;2023-03-04T05:02:15;55.13;;;20.88;;
62848;SDS011;48941;49.516;8.286;2023-03-04T05:04:43;61.22;;;22.50;;
62848;SDS011;48941;49.516;8.286;2023-03-04T05:07:11;59.08;;;22.10;;
62848;SDS011;48941;49.516;8.286;2023-03-04T05:09:39;60.85;;;23.05;;
62848;SDS011;48941;49.516;8.286;2023-03-04T05:12:07;62.58;;;22.33;;
62848;SDS011;48941;49.516;8.286;2023-03-04T05:14:35;63.55;;;22.60;;
62848;SDS011;48941;49.516;8.286;2023-03-04T05:17:05;59.50;;;22.73;;
62848;SDS011;48941;49.516;8.286;2023-03-04T05:19:36;63.42;;;22.20;;
62848;SDS011;48941;49.516;8.286;2023-03-04T05:22:04;58.47;;;21.77;;
62848;SDS011;48941;49.516;8.286;2023-03-04T05:24:32;60.95;;;21.77;;
62848;SDS011;48941;49.516;8.286;2023-03-04T05:27:00;60.72;;;23.00;;
62848;SDS011;48941;49.516;8.286;2023-03-04T05:29:28;62.70;;;21.63;;
62848;SDS011;48941;49.516;8.286;2023-03-04T05:31:55;58.85;;;20.67;;
62848;SDS011;48941;49.516;8.286;2023-03-04T05:34:23;62.72;;;23.58;;
62848;SDS011;48941;49.516;8.286;2023-03-04T05:36:52;68.78;;;22.50;;
62848;SDS011;48941;49.516;8.286;2023-03-04T05:39:20;61.38;;;22.27;;
62848;SDS011;48941;49.516;8.286;2023-03-04T05:41:48;65.85;;;23.90;;
62848;SDS011;48941;49.516;8.286;2023-03-04T05:44:16;62.47;;;23.17;;
62848;SDS011;48941;49.516;8.286;2023-03-04T05:46:44;60.10;;;22.98;;
62848;SDS011;48941;49.516;8.286;2023-03-04T05:49:12;60.55;;;22.88;;
62848;SDS011;48941;49.516;8.286;2023-03-04T05:51:39;58.42;;;22.05;;
62848;SDS011;48941;49.516;8.286;2023-03-04T05:54:09;51.55;;;22.42;;
62848;SDS011;48941;49.516;8.286;2023-03-04T05:56:36;59.05;;;22.17;;
62848;SDS011;48941;49.516;8.286;2023-03-04T05:59:04;61.10;;;23.00;;
62848;SDS011;48941;49.516;8.286;2023-03-04T06:01:32;52.92;;;22.30;;
62848;SDS011;48941;49.516;8.286;2023-03-04T06:03:59;58.58;;;22.25;;
62848;SDS011;48941;49.516;8.286;2023-03-04T06:09:00;60.92;;;21.65;;
62848;SDS011;48941;49.516;8.286;2023-03-04T06:11:29;59.55;;;22.13;;
62848;SDS011;48941;49.516;8.286;2023-03-04T06:13:59;59.63;;;23.80;;
62848;SDS011;48941;49.516;8.286;2023-03-04T06:16:27;57.42;;;23.13;;
62848;SDS011;48941;49.516;8.286;2023-03-04T06:18:55;62.60;;;23.42;;
62848;SDS011;48941;49.516;8.286;2023-03-04T06:21:23;58.40;;;24.42;;
62848;SDS011;48941;49.516;8.286;2023-03-04T06:23:51;59.78;;;23.50;;
62848;SDS011;48941;49.516;8.286;2023-03-04T06:26:18;57.15;;;23.63;;
62848;SDS011;48941;49.516;8.286;2023-03-04T06:28:47;56.25;;;22.85;;
62848;SDS011;48941;49.516;8.286;2023-03-04T06:31:15;56.28;;;23.85;;
62848;SDS011;48941;49.516;8.286;2023-03-04T06:33:43;59.95;;;25.05;;
62848;SDS011;48941;49.516;8.286;2023-03-04T06:36:11;57.45;;;23.83;;
62848;SDS011;48941;49.516;8.286;2023-03-04T06:38:39;57.47;;;25.17;;
62848;SDS011;48941;49.516;8.286;2023-03-04T06:41:07;63.63;;;24.33;;
62848;SDS011;48941;49.516;8.286;2023-03-04T06:43:37;59.42;;;24.73;;
62848;SDS011;48941;49.516;8.286;2023-03-04T06:46:06;61.78;;;24.35;;
62848;SDS011;48941;49.516;8.286;2023-03-04T06:48:35;56.00;;;24.45;;
62848;SDS011;48941;49.516;8.286;2023-03-04T06:51:06;64.85;;;24.50;;
62848;SDS011;48941;49.516;8.286;2023-03-04T06:53:34;66.82;;;24.42;;
62848;SDS011;48941;49.516;8.286;2023-03-04T06:56:02;66.03;;;24.05;;
62848;SDS011;48941;49.516;8.286;2023-03-04T06:58:30;58.50;;;24.05;;
62848;SDS011;48941;49.516;8.286;2023-03-04T07:01:09;56.40;;;24.58;;
62848;SDS011;48941;49.516;8.286;2023-03-04T07:03:38;58.17;;;23.80;;
62848;SDS011;48941;49.516;8.286;2023-03-04T07:06:06;55.55;;;24.10;;
62848;SDS011;48941;49.516;8.286;2023-03-04T07:08:35;65.88;;;25.45;;
62848;SDS011;48941;49.516;8.286;2023-03-04T07:11:04;53.40;;;22.83;;
62848;SDS011;48941;49.516;8.286;2023-03-04T07:13:32;59.35;;;25.00;;
62848;SDS011;48941;49.516;8.286;2023-03-04T07:16:03;60.85;;;26.02;;
62848;SDS011;48941;49.516;8.286;2023-03-04T07:18:33;58.50;;;26.13;;
62848;SDS011;48941;49.516;8.286;2023-03-04T07:21:01;59.85;;;25.27;;
62848;SDS011;48941;49.516;8.286;2023-03-04T07:23:29;60.45;;;25.23;;
62848;SDS011;48941;49.516;8.286;2023-03-04T07:25:58;59.72;;;25.85;;
62848;SDS011;48941;49.516;8.286;2023-03-04T07:28:26;67.20;;;27.50;;
62848;SDS011;48941;49.516;8.286;2023-03-04T07:30:54;67.45;;;29.40;;
62848;SDS011;48941;49.516;8.286;2023-03-04T07:33:21;72.30;;;30.75;;
62848;SDS011;48941;49.516;8.286;2023-03-04T07:35:58;69.43;;;28.60;;
62848;SDS011;48941;49.516;8.286;2023-03-04T07:38:26;68.53;;;28.27;;
62848;SDS011;48941;49.516;8.286;2023-03-04T07:40:54;69.72;;;27.52;;
62848;SDS011;48941;49.516;8.286;2023-03-04T07:43:23;64.70;;;28.27;;
62848;SDS011;48941;49.516;8.286;2023-03-04T07:45:50;70.53;;;27.83;;
62848;SDS011;48941;49.516;8.286;2023-03-04T07:48:18;66.47;;;28.33;;
62848;SDS011;48941;49.516;8.286;2023-03-04T07:50:46;70.38;;;27.52;;
62848;SDS011;48941;49.516;8.286;2023-03-04T07:53:15;64.50;;;27.10;;
62848;SDS011;48941;49.516;8.286;2023-03-04T07:55:46;75.60;;;29.45;;
62848;SDS011;48941;49.516;8.286;2023-03-04T07:58:14;69.93;;;28.45;;
62848;SDS011;48941;49.516;8.286;2023-03-04T08:00:45;73.47;;;27.40;;
62848;SDS011;48941;49.516;8.286;2023-03-04T08:03:12;68.78;;;27.27;;
62848;SDS011;48941;49.516;8.286;2023-03-04T08:05:40;65.85;;;27.02;;
62848;SDS011;48941;49.516;8.286;2023-03-04T08:08:08;68.22;;;28.15;;
62848;SDS011;48941;49.516;8.286;2023-03-04T08:10:37;72.00;;;27.73;;
62848;SDS011;48941;49.516;8.286;2023-03-04T08:13:05;66.00;;;27.33;;
62848;SDS011;48941;49.516;8.286;2023-03-04T08:15:33;67.93;;;28.13;;
62848;SDS011;48941;49.516;8.286;2023-03-04T08:18:05;63.30;;;26.50;;
62848;SDS011;48941;49.516;8.286;2023-03-04T08:20:33;65.75;;;26.52;;
62848;SDS011;48941;49.516;8.286;2023-03-04T08:23:01;66.80;;;26.30;;
62848;SDS011;48941;49.516;8.286;2023-03-04T08:25:29;66.47;;;27.83;;
62848;SDS011;48941;49.516;8.286;2023-03-04T08:27:59;64.65;;;26.60;;
62848;SDS011;48941;49.516;8.286;2023-03-04T08:30:26;71.82;;;27.40;;
62848;SDS011;48941;49.516;8.286;2023-03-04T08:32:54;66.47;;;26.92;;
62848;SDS011;48941;49.516;8.286;2023-03-04T08:35:22;64.05;;;25.73;;
62848;SDS011;48941;49.516;8.286;2023-03-04T08:37:50;66.30;;;24.63;;
62848;SDS011;48941;49.516;8.286;2023-03-04T08:40:18;58.90;;;24.70;;
62848;SDS011;48941;49.516;8.286;2023-03-04T08:42:46;59.20;;;26.17;;
62848;SDS011;48941;49.516;8.286;2023-03-04T08:45:16;57.13;;;25.73;;
62848;SDS011;48941;49.516;8.286;2023-03-04T08:47:44;58.10;;;25.63;;
62848;SDS011;48941;49.516;8.286;2023-03-04T08:50:11;64.55;;;25.15;;
62848;SDS011;48941;49.516;8.286;2023-03-04T08:52:40;57.95;;;22.58;;
62848;SDS011;48941;49.516;8.286;2023-03-04T08:55:08;61.05;;;23.50;;
62848;SDS011;48941;49.516;8.286;2023-03-04T08:57:36;52.97;;;22.00;;
62848;SDS011;48941;49.516;8.286;2023-03-04T09:00:04;53.10;;;22.13;;
62848;SDS011;48941;49.516;8.286;2023-03-04T09:02:34;48.42;;;22.33;;
62848;SDS011;48941;49.516;8.286;2023-03-04T09:05:02;47.97;;;21.60;;
62848;SDS011;48941;49.516;8.286;2023-03-04T09:07:30;51.83;;;21.30;;
62848;SDS011;48941;49.516;8.286;2023-03-04T09:09:58;50.58;;;20.10;;
62848;SDS011;48941;49.516;8.286;2023-03-04T09:12:25;47.72;;;19.98;;
62848;SDS011;48941;49.516;8.286;2023-03-04T09:14:53;57.03;;;20.77;;
62848;SDS011;48941;49.516;8.286;2023-03-04T09:17:37;49.65;;;21.17;;
62848;SDS011;48941;49.516;8.286;2023-03-04T09:20:06;48.90;;;20.63;;
62848;SDS011;48941;49.516;8.286;2023-03-04T09:22:36;44.05;;;20.17;;
62848;SDS011;48941;49.516;8.286;2023-03-04T09:25:05;45.28;;;20.05;;
62848;SDS011;48941;49.516;8.286;2023-03-04T09:27:38;44.65;;;19.02;;
62848;SDS011;48941;49.516;8.286;2023-03-04T09:30:06;49.67;;;21.52;;
62848;SDS011;48941;49.516;8.286;2023-03-04T09:32:35;42.15;;;19.25;;
62848;SDS011;48941;49.516;8.286;2023-03-04T09:35:05;46.42;;;18.27;;
62848;SDS011;48941;49.516;8.286;2023-03-04T09:37:33;41.67;;;17.55;;
62848;SDS011;48941;49.516;8.286;2023-03-04T09:40:00;40.67;;;16.90;;
62848;SDS011;48941;49.516;8.286;2023-03-04T09:42:31;38.45;;;17.02;;
62848;SDS011;48941;49.516;8.286;2023-03-04T09:45:04;42.70;;;16.60;;
62848;SDS011;48941;49.516;8.286;2023-03-04T09:47:34;37.38;;;16.75;;
62848;SDS011;48941;49.516;8.286;2023-03-04T09:50:06;40.08;;;16.10;;
62848;SDS011;48941;49.516;8.286;2023-03-04T09:52:41;36.97;;;16.52;;
62848;SDS011;48941;49.516;8.286;2023-03-04T09:55:18;39.25;;;16.33;;
62848;SDS011;48941;49.516;8.286;2023-03-04T09:57:51;39.83;;;15.70;;
62848;SDS011;48941;49.516;8.286;2023-03-04T10:00:29;38.30;;;16.55;;
62848;SDS011;48941;49.516;8.286;2023-03-04T10:03:05;38.45;;;15.93;;
62848;SDS011;48941;49.516;8.286;2023-03-04T10:05:43;36.00;;;16.17;;
62848;SDS011;48941;49.516;8.286;2023-03-04T10:11:08;39.92;;;16.67;;
62848;SDS011;48941;49.516;8.286;2023-03-04T10:13:42;33.70;;;16.20;;
62848;SDS011;48941;49.516;8.286;2023-03-04T10:16:18;36.60;;;15.48;;
62848;SDS011;48941;49.516;8.286;2023-03-04T10:18:50;41.78;;;16.23;;
62848;SDS011;48941;49.516;8.286;2023-03-04T10:21:25;42.80;;;16.23;;
62848;SDS011;48941;49.516;8.286;2023-03-04T10:23:59;38.38;;;15.10;;
62848;SDS011;48941;49.516;8.286;2023-03-04T10:26:31;32.42;;;14.32;;
62848;SDS011;48941;49.516;8.286;2023-03-04T10:29:00;37.78;;;14.75;;
62848;SDS011;48941;49.516;8.286;2023-03-04T10:31:33;33.20;;;14.50;;
62848;SDS011;48941;49.516;8.286;2023-03-04T10:34:02;32.15;;;14.35;;
62848;SDS011;48941;49.516;8.286;2023-03-04T10:36:37;33.05;;;14.73;;
62848;SDS011;48941;49.516;8.286;2023-03-04T10:39:13;34.38;;;14.20;;
62848;SDS011;48941;49.516;8.286;2023-03-04T10:41:45;31.75;;;13.82;;
62848;SDS011;48941;49.516;8.286;2023-03-04T10:44:22;33.22;;;12.82;;
62848;SDS011;48941;49.516;8.286;2023-03-04T10:46:52;37.20;;;14.93;;
62848;SDS011;48941;49.516;8.286;2023-03-04T10:49:21;32.70;;;13.70;;
62848;SDS011;48941;49.516;8.286;2023-03-04T10:51:52;29.45;;;12.32;;
62848;SDS011;48941;49.516;8.286;2023-03-04T10:54:24;34.33;;;12.88;;
62848;SDS011;48941;49.516;8.286;2023-03-04T10:56:57;27.73;;;13.48;;
62848;SDS011;48941;49.516;8.286;2023-03-04T10:59:32;24.45;;;11.50;;
62848;SDS011;48941;49.516;8.286;2023-03-04T11:02:21;31.75;;;14.02;;
62848;SDS011;48941;49.516;8.286;2023-03-04T11:04:53;28.67;;;11.85;;
62848;SDS011;48941;49.516;8.286;2023-03-04T11:07:24;31.67;;;11.68;;
62848;SDS011;48941;49.516;8.286;2023-03-04T11:09:53;28.08;;;11.98;;
62848;SDS011;48941;49.516;8.286;2023-03-04T11:12:30;31.92;;;11.73;;
62848;SDS011;48941;49.516;8.286;2023-03-04T11:15:00;26.23;;;11.82;;
62848;SDS011;48941;49.516;8.286;2023-03-04T11:17:37;33.30;;;11.68;;
62848;SDS011;48941;49.516;8.286;2023-03-04T11:20:11;22.60;;;10.75;;
62848;SDS011;48941;49.516;8.286;2023-03-04T11:22:47;21.98;;;10.27;;
62848;SDS011;48941;49.516;8.286;2023-03-04T11:25:20;32.25;;;11.90;;
62848;SDS011;48941;49.516;8.286;2023-03-04T11:27:52;32.15;;;10.27;;
62848;SDS011;48941;49.516;8.286;2023-03-04T11:30:25;25.92;;;10.57;;
62848;SDS011;48941;49.516;8.286;2023-03-04T11:33:03;28.80;;;10.85;;
62848;SDS011;48941;49.516;8.286;2023-03-04T11:35:41;23.25;;;10.45;;
62848;SDS011;48941;49.516;8.286;2023-03-04T11:38:17;31.02;;;11.88;;
62848;SDS011;48941;49.516;8.286;2023-03-04T11:40:48;26.63;;;10.75;;
62848;SDS011;48941;49.516;8.286;2023-03-04T11:43:21;24.75;;;11.05;;
62848;SDS011;48941;49.516;8.286;2023-03-04T11:46:10;25.58;;;10.63;;
62848;SDS011;48941;49.516;8.286;2023-03-04T11:48:57;24.73;;;9.85;;
62848;SDS011;48941;49.516;8.286;2023-03-04T11:51:35;31.08;;;10.93;;
62848;SDS011;48941;49.516;8.286;2023-03-04T11:54:14;28.30;;;11.60;;
62848;SDS011;48941;49.516;8.286;2023-03-04T11:56:49;29.73;;;11.80;;
62848;SDS011;48941;49.516;8.286;2023-03-04T11:59:23;27.48;;;10.88;;
62848;SDS011;48941;49.516;8.286;2023-03-04T12:02:09;25.85;;;10.27;;
62848;SDS011;48941;49.516;8.286;2023-03-04T12:04:45;24.88;;;10.90;;
62848;SDS011;48941;49.516;8.286;2023-03-04T12:07:42;24.45;;;10.77;;
62848;SDS011;48941;49.516;8.286;2023-03-04T12:10:23;24.38;;;10.82;;
62848;SDS011;48941;49.516;8.286;2023-03-04T12:16:06;20.50;;;10.85;;
62848;SDS011;48941;49.516;8.286;2023-03-04T12:18:45;24.17;;;9.68;;
62848;SDS011;48941;49.516;8.286;2023-03-04T12:21:27;25.45;;;9.90;;
62848;SDS011;48941;49.516;8.286;2023-03-04T12:27:03;20.02;;;9.85;;
62848;SDS011;48941;49.516;8.286;2023-03-04T12:29:44;20.90;;;9.27;;
62848;SDS011;48941;49.516;8.286;2023-03-04T12:32:22;23.30;;;10.48;;
62848;SDS011;48941;49.516;8.286;2023-03-04T12:35:02;26.33;;;10.80;;
62848;SDS011;48941;49.516;8.286;2023-03-04T12:40:46;23.50;;;10.57;;
62848;SDS011;48941;49.516;8.286;2023-03-04T12:43:24;25.63;;;9.85;;
62848;SDS011;48941;49.516;8.286;2023-03-04T12:46:03;24.10;;;10.02;;
62848;SDS011;48941;49.516;8.286;2023-03-04T12:48:40;24.48;;;9.93;;
62848;SDS011;48941;49.516;8.286;2023-03-04T12:54:01;22.25;;;9.73;;
62848;SDS011;48941;49.516;8.286;2023-03-04T12:56:40;16.60;;;8.00;;
62848;SDS011;48941;49.516;8.286;2023-03-04T12:59:16;23.23;;;8.95;;
62848;SDS011;48941;49.516;8.286;2023-03-04T13:01:49;19.10;;;8.00;;
62848;SDS011;48941;49.516;8.286;2023-03-04T13:04:25;18.88;;;8.15;;
62848;SDS011;48941;49.516;8.286;2023-03-04T13:07:01;30.15;;;9.77;;
62848;SDS011;48941;49.516;8.286;2023-03-04T13:09:41;15.90;;;8.00;;
62848;SDS011;48941;49.516;8.286;2023-03-04T13:12:18;26.35;;;9.35;;
62848;SDS011;48941;49.516;8.286;2023-03-04T13:18:02;27.38;;;8.43;;
62848;SDS011;48941;49.516;8.286;2023-03-04T13:23:47;17.00;;;7.07;;
62848;SDS011;48941;49.516;8.286;2023-03-04T13:26:30;24.40;;;8.15;;
62848;SDS011;48941;49.516;8.286;2023-03-04T13:32:00;21.48;;;8.05;;
62848;SDS011;48941;49.516;8.286;2023-03-04T13:34:49;16.85;;;7.43;;
62848;SDS011;48941;49.516;8.286;2023-03-04T13:37:29;17.10;;;7.07;;
62848;SDS011;48941;49.516;8.286;2023-03-04T13:45:54;15.85;;;7.00;;
62848;SDS011;48941;49.516;8.286;2023-03-04T13:48:23;18.77;;;7.60;;
62848;SDS011;48941;49.516;8.286;2023-03-04T13:50:57;20.02;;;6.85;;
62848;SDS011;48941;49.516;8.286;2023-03-04T13:56:20;20.95;;;6.95;;
62848;SDS011;48941;49.516;8.286;2023-03-04T13:58:50;27.17;;;10.95;;
62848;SDS011;48941;49.516;8.286;2023-03-04T14:01:28;24.48;;;11.98;;
62848;SDS011;48941;49.516;8.286;2023-03-04T14:03:58;21.85;;;9.85;;
62848;SDS011;48941;49.516;8.286;2023-03-04T14:06:30;17.98;;;7.55;;
62848;SDS011;48941;49.516;8.286;2023-03-04T14:08:58;17.52;;;6.72;;
62848;SDS011;48941;49.516;8.286;2023-03-04T14:11:26;19.38;;;7.30;;
62848;SDS011;48941;49.516;8.286;2023-03-04T14:13:58;18.45;;;7.00;;
62848;SDS011;48941;49.516;8.286;2023-03-04T14:16:31;18.30;;;7.32;;
62848;SDS011;48941;49.516;8.286;2023-03-04T14:19:04;17.67;;;7.00;;
62848;SDS011;48941;49.516;8.286;2023-03-04T14:21:35;18.10;;;7.40;;
62848;SDS011;48941;49.516;8.286;2023-03-04T14:24:04;23.08;;;7.20;;
62848;SDS011;48941;49.516;8.286;2023-03-04T14:26:34;17.58;;;7.47;;
62848;SDS011;48941;49.516;8.286;2023-03-04T14:29:02;20.33;;;6.97;;
62848;SDS011;48941;49.516;8.286;2023-03-04T14:31:45;23.77;;;7.97;;
62848;SDS011;48941;49.516;8.286;2023-03-04T14:34:14;22.05;;;8.50;;
62848;SDS011;48941;49.516;8.286;2023-03-04T14:36:50;20.17;;;9.30;;
62848;SDS011;48941;49.516;8.286;2023-03-04T14:39:18;20.73;;;8.63;;
62848;SDS011;48941;49.516;8.286;2023-03-04T14:41:50;20.70;;;8.10;;
62848;SDS011;48941;49.516;8.286;2023-03-04T14:44:23;18.85;;;8.05;;
62848;SDS011;48941;49.516;8.286;2023-03-04T14:47:05;21.67;;;8.23;;
62848;SDS011;48941;49.516;8.286;2023-03-04T14:49:37;24.10;;;7.90;;
62848;SDS011;48941;49.516;8.286;2023-03-04T14:57:29;23.65;;;8.65;;
62848;SDS011;48941;49.516;8.286;2023-03-04T15:00:13;26.48;;;9.95;;
62848;SDS011;48941;49.516;8.286;2023-03-04T15:02:52;23.95;;;10.00;;
62848;SDS011;48941;49.516;8.286;2023-03-04T15:05:23;28.33;;;10.52;;
62848;SDS011;48941;49.516;8.286;2023-03-04T15:07:55;28.10;;;10.20;;
62848;SDS011;48941;49.516;8.286;2023-03-04T15:10:25;31.35;;;14.75;;
62848;SDS011;48941;49.516;8.286;2023-03-04T15:12:55;24.33;;;10.77;;
62848;SDS011;48941;49.516;8.286;2023-03-04T15:15:31;32.08;;;14.63;;
62848;SDS011;48941;49.516;8.286;2023-03-04T15:18:02;21.40;;;8.95;;
62848;SDS011;48941;49.516;8.286;2023-03-04T15:20:40;21.92;;;8.77;;
62848;SDS011;48941;49.516;8.286;2023-03-04T15:23:09;22.67;;;10.40;;
62848;SDS011;48941;49.516;8.286;2023-03-04T15:25:40;26.48;;;9.75;;
62848;SDS011;48941;49.516;8.286;2023-03-04T15:28:11;24.60;;;10.25;;